Time;durP1;ratioP1;P1;durP2;ratioP2;P2;SDS_P1;SDS_P2;PMS_P1;PMS_P2;Temp;Humidity;BMP_temperature;BMP_pressure;BME280_temperature;BME280_humidity;BME280_pressure;Samples;Min_cycle;Max_cycle;Signal;HPM_P1;HPM_P2
2022/10/25 00:00:41;;;;;;;1.38;0.85;;;;;;;;;;5117903;28;20291;-84
2022/10/25 00:03:09;;;;;;;1.25;0.93;;;;;;;;;;5118305;28;20219;-84
2022/10/25 00:05:38;;;;;;;1.65;1.10;;;;;;;;;;5117863;28;20756;-84
2022/10/25 00:08:06;;;;;;;0.77;0.70;;;;;;;;;;5117258;28;20198;-84
2022/10/25 00:10:34;;;;;;;2.38;1.38;;;;;;;;;;5116798;28;20570;-85
2022/10/25 00:13:02;;;;;;;1.70;0.75;;;;;;;;;;5117485;28;20223;-83
2022/10/25 00:15:31;;;;;;;1.60;0.98;;;;;;;;;;5117740;28;20303;-84
2022/10/25 00:17:58;;;;;;;2.90;1.45;;;;;;;;;;5117678;28;20206;-86
2022/10/25 00:20:26;;;;;;;0.70;0.70;;;;;;;;;;5117414;28;20608;-86
2022/10/25 00:22:53;;;;;;;1.17;0.75;;;;;;;;;;5117445;28;20220;-86
2022/10/25 00:25:21;;;;;;;4.07;1.50;;;;;;;;;;5117341;27;20286;-86
2022/10/25 00:27:48;;;;;;;1.63;0.95;;;;;;;;;;5117026;28;20227;-85
2022/10/25 00:30:16;;;;;;;1.10;1.00;;;;;;;;;;5117067;28;20636;-84
2022/10/25 00:32:46;;;;;;;1.58;1.45;;;;;;;;;;5116993;28;20224;-84
2022/10/25 00:35:13;;;;;;;1.60;0.90;;;;;;;;;;5116007;28;20291;-85
2022/10/25 00:37:41;;;;;;;1.27;0.77;;;;;;;;;;5096528;28;20210;-85
2022/10/25 00:40:10;;;;;;;1.17;1.00;;;;;;;;;;5096710;28;20659;-84
2022/10/25 00:42:37;;;;;;;2.75;1.83;;;;;;;;;;5095763;28;20220;-84
2022/10/25 00:45:21;;;;;;;1.48;0.80;;;;;;;;;;5096520;28;20231;-85
2022/10/25 00:47:55;;;;;;;5.07;2.55;;;;;;;;;;5096899;28;20370;-85
2022/10/25 00:50:40;;;;;;;1.88;1.00;;;;;;;;;;5096619;28;20192;-84
2022/10/25 00:53:11;;;;;;;3.38;1.00;;;;;;;;;;5095854;28;20235;-85
2022/10/25 00:55:40;;;;;;;1.67;1.20;;;;;;;;;;5096941;28;20411;-85
2022/10/25 00:58:10;;;;;;;2.00;1.20;;;;;;;;;;5095972;28;20200;-85
2022/10/25 01:00:38;;;;;;;1.35;1.10;;;;;;;;;;5096889;28;20682;-85
2022/10/25 01:03:07;;;;;;;1.20;1.10;;;;;;;;;;5096531;28;20216;-86
2022/10/25 01:05:35;;;;;;;1.35;0.90;;;;;;;;;;5100944;28;20238;-85
2022/10/25 01:08:03;;;;;;;1.33;0.70;;;;;;;;;;5116878;28;20235;-86
2022/10/25 01:10:31;;;;;;;1.45;0.77;;;;;;;;;;5117123;28;20287;-84
2022/10/25 01:12:59;;;;;;;1.17;0.70;;;;;;;;;;5116715;28;20314;-85
2022/10/25 01:15:33;;;;;;;1.23;1.13;;;;;;;;;;5117024;28;20673;-82
2022/10/25 01:18:08;;;;;;;1.25;1.02;;;;;;;;;;5116798;28;20212;-84
2022/10/25 01:21:05;;;;;;;3.08;1.33;;;;;;;;;;5116610;27;20190;-85
2022/10/25 01:24:17;;;;;;;1.85;1.13;;;;;;;;;;5116253;28;20196;-83
2022/10/25 01:27:22;;;;;;;1.42;0.98;;;;;;;;;;5074457;28;20199;-86
2022/10/25 01:30:11;;;;;;;1.55;1.10;;;;;;;;;;5115830;28;20584;-86
2022/10/25 01:33:08;;;;;;;1.52;1.05;;;;;;;;;;5116275;28;20229;-85
2022/10/25 01:35:45;;;;;;;2.15;1.27;;;;;;;;;;5105722;28;20201;-84
2022/10/25 01:38:25;;;;;;;2.08;0.90;;;;;;;;;;5096191;28;20280;-85
2022/10/25 01:41:01;;;;;;;1.20;0.88;;;;;;;;;;5095751;28;20216;-84
2022/10/25 01:43:35;;;;;;;2.33;1.10;;;;;;;;;;5095531;28;20184;-84
2022/10/25 01:46:12;;;;;;;2.05;1.05;;;;;;;;;;5096361;28;20553;-84
2022/10/25 01:48:46;;;;;;;1.65;0.95;;;;;;;;;;5095898;28;20191;-84
2022/10/25 01:51:17;;;;;;;7.82;1.35;;;;;;;;;;5095393;28;20220;-84
2022/10/25 01:53:46;;;;;;;1.55;0.82;;;;;;;;;;5095599;28;20196;-85
2022/10/25 01:56:20;;;;;;;2.13;1.00;;;;;;;;;;5095119;28;20290;-84
2022/10/25 01:59:03;;;;;;;1.75;1.20;;;;;;;;;;5095399;28;20184;-84
2022/10/25 02:01:37;;;;;;;1.48;0.80;;;;;;;;;;5095794;28;20224;-84
2022/10/25 02:04:11;;;;;;;3.05;1.08;;;;;;;;;;5095761;28;20187;-84
2022/10/25 02:06:47;;;;;;;4.28;1.50;;;;;;;;;;5095780;28;20200;-84
2022/10/25 02:09:23;;;;;;;2.20;1.00;;;;;;;;;;5095234;28;20187;-84
2022/10/25 02:11:51;;;;;;;1.88;1.30;;;;;;;;;;5095200;28;20306;-85
2022/10/25 02:14:24;;;;;;;1.20;0.82;;;;;;;;;;5097096;28;20220;-84
2022/10/25 02:16:56;;;;;;;0.85;0.85;;;;;;;;;;5095308;28;20181;-85
2022/10/25 02:19:45;;;;;;;1.63;1.30;;;;;;;;;;5093859;28;20624;-85
2022/10/25 02:22:13;;;;;;;0.93;0.93;;;;;;;;;;5094132;28;20745;-85
2022/10/25 02:24:44;;;;;;;2.05;0.70;;;;;;;;;;5094531;28;20196;-85
2022/10/25 02:27:12;;;;;;;2.08;0.93;;;;;;;;;;5095072;28;20191;-85
2022/10/25 02:29:40;;;;;;;1.27;0.70;;;;;;;;;;5094967;28;20224;-85
2022/10/25 02:32:08;;;;;;;2.47;0.95;;;;;;;;;;5094992;28;20248;-86
2022/10/25 02:34:37;;;;;;;3.60;1.08;;;;;;;;;;5094551;28;20256;-85
2022/10/25 02:37:04;;;;;;;1.70;1.20;;;;;;;;;;5112788;28;20291;-87
2022/10/25 02:39:32;;;;;;;0.68;0.68;;;;;;;;;;5115774;28;20651;-85
2022/10/25 02:42:01;;;;;;;0.70;0.70;;;;;;;;;;5116296;28;20235;-85
2022/10/25 02:44:28;;;;;;;1.45;0.70;;;;;;;;;;5116365;28;20249;-86
2022/10/25 02:46:56;;;;;;;3.13;1.50;;;;;;;;;;5116473;28;20278;-85
2022/10/25 02:49:23;;;;;;;1.45;1.00;;;;;;;;;;5115161;28;20192;-85
2022/10/25 02:51:52;;;;;;;1.67;0.80;;;;;;;;;;5115216;28;20223;-87
2022/10/25 02:54:20;;;;;;;0.70;0.70;;;;;;;;;;5115120;28;20286;-87
2022/10/25 02:56:51;;;;;;;1.15;0.80;;;;;;;;;;5114729;28;20199;-86
2022/10/25 02:59:20;;;;;;;0.80;0.80;;;;;;;;;;5114533;28;20188;-86
2022/10/25 03:01:47;;;;;;;0.77;0.70;;;;;;;;;;5114848;28;20242;-86
2022/10/25 03:04:15;;;;;;;2.17;1.00;;;;;;;;;;5114488;28;20192;-86
2022/10/25 03:06:42;;;;;;;1.10;1.00;;;;;;;;;;5100932;28;20224;-85
2022/10/25 03:09:11;;;;;;;2.90;0.90;;;;;;;;;;5098196;28;20196;-85
2022/10/25 03:11:38;;;;;;;1.10;0.77;;;;;;;;;;5099185;28;20268;-87
2022/10/25 03:14:06;;;;;;;2.83;1.10;;;;;;;;;;5100046;28;20302;-86
2022/10/25 03:16:33;;;;;;;1.52;1.10;;;;;;;;;;5114765;28;20224;-84
2022/10/25 03:19:01;;;;;;;0.80;0.80;;;;;;;;;;5120201;28;20673;-85
2022/10/25 03:21:29;;;;;;;0.80;0.80;;;;;;;;;;5119365;28;20306;-84
2022/10/25 03:23:57;;;;;;;3.42;1.00;;;;;;;;;;5119253;27;20227;-85
2022/10/25 03:26:25;;;;;;;1.70;1.10;;;;;;;;;;5120054;28;20286;-86
2022/10/25 03:28:53;;;;;;;0.73;0.73;;;;;;;;;;5120239;28;20283;-85
2022/10/25 03:31:20;;;;;;;1.08;0.85;;;;;;;;;;5120581;28;20247;-84
2022/10/25 03:33:50;;;;;;;1.33;0.90;;;;;;;;;;5120518;28;20633;-85
2022/10/25 03:36:17;;;;;;;1.30;1.00;;;;;;;;;;5109348;28;20212;-85
2022/10/25 03:38:45;;;;;;;3.60;1.17;;;;;;;;;;5099572;28;20291;-85
2022/10/25 03:41:13;;;;;;;0.70;0.70;;;;;;;;;;5099034;28;20212;-84
2022/10/25 03:43:42;;;;;;;1.42;0.82;;;;;;;;;;5098672;28;20200;-84
2022/10/25 03:46:09;;;;;;;0.60;0.60;;;;;;;;;;5099486;28;20260;-85
2022/10/25 03:48:37;;;;;;;1.10;0.60;;;;;;;;;;5099383;28;20200;-85
2022/10/25 03:51:05;;;;;;;0.77;0.77;;;;;;;;;;5098528;28;20232;-84
2022/10/25 03:53:33;;;;;;;1.83;0.65;;;;;;;;;;5098888;28;20268;-85
2022/10/25 03:56:00;;;;;;;2.10;1.00;;;;;;;;;;5099532;28;20216;-87
2022/10/25 03:58:28;;;;;;;0.80;0.80;;;;;;;;;;5098341;28;20639;-86
2022/10/25 04:00:58;;;;;;;2.17;1.08;;;;;;;;;;5097945;28;20291;-87
2022/10/25 04:03:26;;;;;;;3.85;1.00;;;;;;;;;;5098462;28;20574;-87
2022/10/25 04:05:53;;;;;;;1.33;0.93;;;;;;;;;;5105239;28;20294;-87
2022/10/25 04:08:21;;;;;;;0.80;0.80;;;;;;;;;;5118776;28;20223;-85
2022/10/25 04:10:48;;;;;;;0.55;0.55;;;;;;;;;;5118161;28;20238;-88
2022/10/25 04:13:16;;;;;;;0.75;0.75;;;;;;;;;;5116759;28;20246;-85
2022/10/25 04:15:43;;;;;;;0.60;0.60;;;;;;;;;;5116850;28;20310;-86
2022/10/25 04:18:12;;;;;;;0.93;0.80;;;;;;;;;;5116698;28;20304;-86
2022/10/25 04:20:39;;;;;;;1.23;0.88;;;;;;;;;;5117323;28;20218;-86
2022/10/25 04:23:07;;;;;;;1.50;0.82;;;;;;;;;;5117007;28;20666;-86
2022/10/25 04:25:34;;;;;;;1.52;0.77;;;;;;;;;;5117477;27;20200;-87
2022/10/25 04:28:03;;;;;;;2.78;0.70;;;;;;;;;;5116831;28;20727;-85
2022/10/25 04:30:30;;;;;;;1.60;0.77;;;;;;;;;;5117077;28;20203;-85
2022/10/25 04:32:58;;;;;;;2.05;1.00;;;;;;;;;;5117188;28;20306;-85
2022/10/25 04:35:27;;;;;;;2.20;0.77;;;;;;;;;;5114300;28;20316;-87
2022/10/25 04:37:58;;;;;;;0.93;0.90;;;;;;;;;;5097030;28;20283;-85
2022/10/25 04:40:25;;;;;;;0.60;0.60;;;;;;;;;;5097070;28;20200;-85
2022/10/25 04:42:53;;;;;;;2.10;1.15;;;;;;;;;;5098714;28;20704;-85
2022/10/25 04:45:20;;;;;;;1.27;0.85;;;;;;;;;;5098779;28;20196;-84
2022/10/25 04:47:48;;;;;;;1.58;0.80;;;;;;;;;;5098581;28;20263;-84
2022/10/25 04:50:15;;;;;;;1.63;0.80;;;;;;;;;;5098304;28;20195;-84
2022/10/25 04:52:44;;;;;;;0.82;0.82;;;;;;;;;;5097606;28;20697;-84
2022/10/25 04:55:11;;;;;;;0.85;0.82;;;;;;;;;;5097330;28;20227;-85
2022/10/25 04:57:39;;;;;;;1.50;0.80;;;;;;;;;;5097637;28;20697;-84
2022/10/25 05:00:08;;;;;;;1.05;0.98;;;;;;;;;;5097846;28;20232;-85
2022/10/25 05:02:35;;;;;;;0.75;0.75;;;;;;;;;;5097371;28;20227;-87
2022/10/25 05:05:03;;;;;;;0.70;0.70;;;;;;;;;;5097395;28;20240;-87
2022/10/25 05:07:31;;;;;;;2.22;1.00;;;;;;;;;;5117394;28;20626;-86
2022/10/25 05:10:00;;;;;;;1.98;0.90;;;;;;;;;;5117296;28;20291;-87
2022/10/25 05:12:27;;;;;;;0.68;0.68;;;;;;;;;;5116884;28;20270;-87
2022/10/25 05:14:55;;;;;;;0.88;0.88;;;;;;;;;;5117592;28;20235;-86
2022/10/25 05:17:22;;;;;;;1.10;0.73;;;;;;;;;;5117015;28;20227;-85
2022/10/25 05:19:50;;;;;;;1.42;1.33;;;;;;;;;;5118091;28;20637;-86
2022/10/25 05:22:17;;;;;;;0.73;0.70;;;;;;;;;;5117593;27;20251;-85
2022/10/25 05:24:45;;;;;;;0.50;0.50;;;;;;;;;;5118150;28;20242;-86
2022/10/25 05:27:14;;;;;;;0.90;0.90;;;;;;;;;;5117597;27;20768;-86
2022/10/25 05:29:42;;;;;;;0.80;0.68;;;;;;;;;;5117303;28;20286;-86
2022/10/25 05:32:09;;;;;;;2.30;1.15;;;;;;;;;;5117637;28;20302;-86
2022/10/25 05:34:37;;;;;;;0.90;0.77;;;;;;;;;;5117468;27;20290;-86
2022/10/25 05:37:04;;;;;;;2.63;0.98;;;;;;;;;;5102210;28;20220;-84
2022/10/25 05:39:32;;;;;;;1.77;1.05;;;;;;;;;;5097311;28;20200;-84
2022/10/25 05:42:01;;;;;;;1.75;1.10;;;;;;;;;;5096945;28;20255;-84
2022/10/25 05:44:30;;;;;;;0.88;0.80;;;;;;;;;;5096939;28;20196;-85
2022/10/25 05:46:57;;;;;;;2.03;0.85;;;;;;;;;;5097066;28;20290;-85
2022/10/25 05:49:25;;;;;;;1.23;0.73;;;;;;;;;;5097884;28;20300;-85
2022/10/25 05:51:52;;;;;;;1.05;0.80;;;;;;;;;;5097434;28;20228;-86
2022/10/25 05:54:22;;;;;;;2.42;0.98;;;;;;;;;;5096889;28;20263;-85
2022/10/25 05:56:49;;;;;;;0.90;0.90;;;;;;;;;;5097209;28;20216;-84
2022/10/25 05:59:17;;;;;;;0.75;0.70;;;;;;;;;;5096371;28;20200;-85
2022/10/25 06:01:47;;;;;;;3.40;1.10;;;;;;;;;;5096856;28;20320;-86
2022/10/25 06:04:16;;;;;;;1.45;1.00;;;;;;;;;;5096121;28;20656;-87
2022/10/25 06:06:46;;;;;;;1.75;1.05;;;;;;;;;;5096533;28;20196;-86
2022/10/25 06:09:14;;;;;;;1.02;0.93;;;;;;;;;;5096528;28;20200;-87
2022/10/25 06:11:42;;;;;;;1.13;0.77;;;;;;;;;;5095894;28;20228;-85
2022/10/25 06:14:11;;;;;;;0.90;0.80;;;;;;;;;;5096312;28;20239;-87
2022/10/25 06:16:39;;;;;;;1.40;1.00;;;;;;;;;;5095681;28;20227;-86
2022/10/25 06:19:08;;;;;;;1.00;0.95;;;;;;;;;;5095995;28;20231;-87
2022/10/25 06:21:35;;;;;;;2.83;1.00;;;;;;;;;;5095360;28;20223;-87
2022/10/25 06:24:03;;;;;;;1.75;0.90;;;;;;;;;;5096183;28;20202;-84
2022/10/25 06:26:32;;;;;;;2.60;1.00;;;;;;;;;;5096519;28;20203;-86
2022/10/25 06:29:01;;;;;;;0.52;0.52;;;;;;;;;;5096181;28;20260;-83
2022/10/25 06:31:30;;;;;;;1.20;0.95;;;;;;;;;;5095178;28;20228;-84
2022/10/25 06:33:58;;;;;;;1.83;0.90;;;;;;;;;;5094883;28;20208;-85
2022/10/25 06:36:27;;;;;;;1.20;1.00;;;;;;;;;;5106391;28;20215;-86
2022/10/25 06:38:55;;;;;;;0.90;0.88;;;;;;;;;;5115247;28;20200;-85
2022/10/25 06:41:25;;;;;;;0.90;0.90;;;;;;;;;;5117187;28;20262;-86
2022/10/25 06:43:52;;;;;;;0.98;0.70;;;;;;;;;;5119404;28;20203;-86
2022/10/25 06:46:22;;;;;;;0.98;0.82;;;;;;;;;;5121355;28;20192;-84
2022/10/25 06:48:50;;;;;;;1.02;0.88;;;;;;;;;;5119570;28;20211;-84
2022/10/25 06:51:18;;;;;;;0.77;0.77;;;;;;;;;;5118433;28;20216;-85
2022/10/25 06:53:47;;;;;;;1.30;1.05;;;;;;;;;;5118450;28;20195;-85
2022/10/25 06:56:15;;;;;;;3.15;1.10;;;;;;;;;;5118497;28;20306;-84
2022/10/25 06:58:43;;;;;;;1.30;1.10;;;;;;;;;;5118002;28;20202;-85
2022/10/25 07:01:13;;;;;;;1.63;1.23;;;;;;;;;;5117540;28;20223;-85
2022/10/25 07:03:41;;;;;;;1.00;1.00;;;;;;;;;;5117698;28;20207;-86
2022/10/25 07:06:11;;;;;;;2.60;1.15;;;;;;;;;;5117751;28;20206;-85
2022/10/25 07:08:40;;;;;;;1.10;0.98;;;;;;;;;;5117810;28;20210;-86
2022/10/25 07:11:13;;;;;;;1.08;1.05;;;;;;;;;;5117771;28;20700;-85
2022/10/25 07:13:40;;;;;;;1.05;0.75;;;;;;;;;;5117209;28;20199;-86
2022/10/25 07:16:11;;;;;;;2.28;1.05;;;;;;;;;;5117044;28;20196;-86
2022/10/25 07:18:39;;;;;;;1.42;0.93;;;;;;;;;;5117873;28;20267;-86
2022/10/25 07:21:10;;;;;;;3.00;0.98;;;;;;;;;;5116934;28;20202;-86
2022/10/25 07:23:41;;;;;;;0.88;0.80;;;;;;;;;;5117161;28;20267;-87
2022/10/25 07:26:11;;;;;;;0.90;0.90;;;;;;;;;;5117132;28;20191;-87
2022/10/25 07:28:38;;;;;;;1.27;1.05;;;;;;;;;;5116764;28;20202;-89
2022/10/25 07:31:06;;;;;;;0.70;0.70;;;;;;;;;;5117245;28;20196;-84
2022/10/25 07:33:34;;;;;;;0.85;0.75;;;;;;;;;;5117435;28;20718;-86
2022/10/25 07:36:01;;;;;;;1.10;1.00;;;;;;;;;;5109064;28;20204;-86
2022/10/25 07:38:29;;;;;;;0.65;0.65;;;;;;;;;;5096675;28;20314;-85
2022/10/25 07:40:59;;;;;;;2.83;0.90;;;;;;;;;;5096955;28;20203;-85
2022/10/25 07:43:29;;;;;;;1.58;0.73;;;;;;;;;;5110552;28;20195;-84
2022/10/25 07:45:57;;;;;;;1.02;0.93;;;;;;;;;;5118346;28;20181;-85
2022/10/25 07:48:24;;;;;;;0.80;0.70;;;;;;;;;;5116940;28;20272;-84
2022/10/25 07:50:52;;;;;;;1.23;1.13;;;;;;;;;;5118367;28;20673;-83
2022/10/25 07:53:19;;;;;;;1.23;1.00;;;;;;;;;;5116911;28;20711;-85
2022/10/25 07:55:51;;;;;;;0.70;0.70;;;;;;;;;;5118010;28;20291;-85
2022/10/25 07:58:19;;;;;;;1.77;1.38;;;;;;;;;;5120279;28;20215;-86
2022/10/25 08:00:48;;;;;;;1.33;1.10;;;;;;;;;;5118699;28;20686;-84
2022/10/25 08:03:17;;;;;;;0.90;0.77;;;;;;;;;;5117451;28;20202;-85
2022/10/25 08:05:46;;;;;;;0.95;0.88;;;;;;;;;;5117439;28;20203;-86
2022/10/25 08:08:14;;;;;;;2.15;0.75;;;;;;;;;;5120364;27;20218;-86
2022/10/25 08:10:43;;;;;;;1.52;0.73;;;;;;;;;;5124596;27;20632;-84
2022/10/25 08:13:10;;;;;;;2.45;1.00;;;;;;;;;;5116931;28;20239;-83
2022/10/25 08:15:39;;;;;;;1.30;0.80;;;;;;;;;;5116458;27;20218;-84
2022/10/25 08:18:09;;;;;;;0.70;0.70;;;;;;;;;;5116606;28;20223;-83
2022/10/25 08:20:36;;;;;;;1.33;0.90;;;;;;;;;;5116537;28;20200;-84
2022/10/25 08:23:05;;;;;;;1.08;1.00;;;;;;;;;;5116780;28;20216;-82
2022/10/25 08:25:33;;;;;;;1.20;0.90;;;;;;;;;;5117215;27;20203;-83
2022/10/25 08:28:00;;;;;;;1.77;1.00;;;;;;;;;;5116621;28;20286;-80
2022/10/25 08:30:28;;;;;;;1.70;1.23;;;;;;;;;;5116508;28;20263;-82
2022/10/25 08:32:55;;;;;;;1.85;1.00;;;;;;;;;;5116747;28;20326;-82
2022/10/25 08:35:24;;;;;;;1.15;0.80;;;;;;;;;;5117021;28;20936;-85
2022/10/25 08:37:52;;;;;;;2.10;1.10;;;;;;;;;;5117285;28;20223;-85
2022/10/25 08:40:23;;;;;;;1.42;1.33;;;;;;;;;;5116950;28;20299;-84
2022/10/25 08:43:04;;;;;;;0.93;0.90;;;;;;;;;;5117867;28;20303;-85
2022/10/25 08:45:37;;;;;;;1.33;1.10;;;;;;;;;;5117203;28;20184;-83
2022/10/25 08:48:13;;;;;;;3.50;1.20;;;;;;;;;;5117731;28;20271;-85
2022/10/25 08:50:46;;;;;;;0.90;0.88;;;;;;;;;;5117985;28;20183;-85
2022/10/25 08:53:20;;;;;;;1.83;1.10;;;;;;;;;;5117180;28;20186;-85
2022/10/25 08:55:47;;;;;;;2.05;1.35;;;;;;;;;;5117221;27;20192;-84
2022/10/25 08:58:21;;;;;;;1.95;1.30;;;;;;;;;;5117737;28;20237;-85
2022/10/25 09:00:49;;;;;;;1.85;0.80;;;;;;;;;;5117283;28;20190;-84
2022/10/25 09:03:23;;;;;;;1.10;1.00;;;;;;;;;;5117624;28;20196;-85
2022/10/25 09:06:06;;;;;;;1.33;1.10;;;;;;;;;;5108623;28;20291;-83
2022/10/25 09:08:48;;;;;;;1.48;1.33;;;;;;;;;;5095861;28;20549;-85
2022/10/25 09:11:29;;;;;;;2.17;1.17;;;;;;;;;;5096964;28;20672;-86
2022/10/25 09:14:02;;;;;;;0.80;0.80;;;;;;;;;;5097545;28;20773;-84
2022/10/25 09:16:34;;;;;;;1.60;0.95;;;;;;;;;;5096823;28;20216;-86
2022/10/25 09:19:02;;;;;;;1.70;1.08;;;;;;;;;;5095950;28;20200;-86
2022/10/25 09:21:39;;;;;;;1.02;0.98;;;;;;;;;;5096284;28;20226;-86
2022/10/25 09:24:13;;;;;;;2.28;1.25;;;;;;;;;;5096726;28;20846;-85
2022/10/25 09:26:45;;;;;;;1.58;0.93;;;;;;;;;;5096965;28;20188;-84
2022/10/25 09:29:21;;;;;;;4.38;1.25;;;;;;;;;;5096548;28;20181;-86
2022/10/25 09:31:53;;;;;;;0.88;0.80;;;;;;;;;;5096292;28;20220;-86
2022/10/25 09:34:23;;;;;;;2.42;1.10;;;;;;;;;;5095715;28;20194;-84
2022/10/25 09:36:57;;;;;;;0.93;0.93;;;;;;;;;;5111055;28;20282;-84
2022/10/25 09:39:34;;;;;;;1.58;0.90;;;;;;;;;;5112422;28;20634;-85
2022/10/25 09:42:02;;;;;;;1.75;1.45;;;;;;;;;;5096009;28;20656;-85
2022/10/25 09:44:39;;;;;;;1.80;1.17;;;;;;;;;;5095517;28;20264;-83
2022/10/25 09:47:17;;;;;;;1.48;1.23;;;;;;;;;;5114320;28;20215;-84
2022/10/25 09:49:54;;;;;;;1.25;1.10;;;;;;;;;;5115824;28;20215;-86
2022/10/25 09:52:33;;;;;;;2.17;1.00;;;;;;;;;;5115236;28;20302;-86
2022/10/25 09:55:25;;;;;;;1.13;1.08;;;;;;;;;;5116999;28;20226;-87
2022/10/25 09:57:53;;;;;;;1.60;1.00;;;;;;;;;;5116145;28;20263;-86
2022/10/25 10:00:21;;;;;;;1.10;1.00;;;;;;;;;;5115052;28;20633;-85
2022/10/25 10:02:48;;;;;;;1.35;1.10;;;;;;;;;;5117659;28;20225;-87
2022/10/25 10:05:18;;;;;;;1.85;1.60;;;;;;;;;;5107973;28;20283;-87
2022/10/25 10:07:48;;;;;;;0.85;0.85;;;;;;;;;;5094567;28;20210;-86
2022/10/25 10:10:20;;;;;;;1.85;1.10;;;;;;;;;;5094399;28;20809;-86
2022/10/25 10:12:52;;;;;;;0.65;0.65;;;;;;;;;;5094467;28;20371;-87
2022/10/25 10:15:24;;;;;;;1.65;0.95;;;;;;;;;;5094520;28;20215;-87
2022/10/25 10:18:23;;;;;;;1.20;0.55;;;;;;;;;;5113182;28;20651;-85
2022/10/25 10:21:07;;;;;;;0.68;0.63;;;;;;;;;;5095464;28;20184;-85
2022/10/25 10:23:44;;;;;;;1.02;1.00;;;;;;;;;;5095627;28;20184;-86
2022/10/25 10:26:20;;;;;;;1.20;0.80;;;;;;;;;;5095214;28;20199;-85
2022/10/25 10:28:52;;;;;;;1.55;1.00;;;;;;;;;;5108096;28;20241;-86
2022/10/25 10:31:20;;;;;;;0.70;0.70;;;;;;;;;;5116345;28;20251;-87
2022/10/25 10:33:51;;;;;;;0.93;0.82;;;;;;;;;;5115238;28;20199;-84
2022/10/25 10:36:25;;;;;;;0.82;0.70;;;;;;;;;;5106917;28;20243;-86
2022/10/25 10:38:55;;;;;;;2.42;1.20;;;;;;;;;;5095181;28;20780;-85
2022/10/25 10:41:26;;;;;;;0.80;0.80;;;;;;;;;;5096031;28;20303;-86
2022/10/25 10:44:11;;;;;;;1.40;1.30;;;;;;;;;;5095385;28;20291;-86
2022/10/25 10:46:45;;;;;;;3.25;0.93;;;;;;;;;;5095367;28;20212;-87
2022/10/25 10:49:12;;;;;;;2.00;1.00;;;;;;;;;;5095054;28;20192;-87
2022/10/25 10:51:42;;;;;;;1.13;1.00;;;;;;;;;;5094729;28;20208;-85
2022/10/25 10:54:27;;;;;;;3.55;1.15;;;;;;;;;;5095321;28;20231;-85
2022/10/25 10:56:58;;;;;;;1.65;0.80;;;;;;;;;;5095166;28;20220;-86
2022/10/25 10:59:40;;;;;;;1.10;0.85;;;;;;;;;;5094902;28;20638;-84
2022/10/25 11:02:24;;;;;;;1.08;0.70;;;;;;;;;;5094129;28;20331;-85
2022/10/25 11:04:53;;;;;;;1.45;0.93;;;;;;;;;;5094822;28;20199;-84
2022/10/25 11:07:34;;;;;;;2.60;1.38;;;;;;;;;;5102895;28;20200;-86
2022/10/25 11:10:32;;;;;;;0.40;0.40;;;;;;;;;;5115508;28;20199;-85
2022/10/25 11:13:17;;;;;;;7.80;6.82;;;;;;;;;;5114890;28;20231;-83
2022/10/25 11:16:28;;;;;;;2.47;2.28;;;;;;;;;;5115213;28;20176;-85
2022/10/25 11:19:15;;;;;;;1.30;1.20;;;;;;;;;;5114886;28;20207;-85
2022/10/25 11:22:03;;;;;;;1.65;1.25;;;;;;;;;;5114215;28;20711;-82
2022/10/25 11:24:38;;;;;;;1.48;0.93;;;;;;;;;;5114219;28;20707;-85
2022/10/25 11:27:16;;;;;;;1.83;1.67;;;;;;;;;;5115353;28;20207;-84
2022/10/25 11:30:00;;;;;;;2.15;2.05;;;;;;;;;;5116854;28;20184;-84
2022/10/25 11:33:01;;;;;;;1.70;1.58;;;;;;;;;;5117369;28;20362;-86
2022/10/25 11:36:01;;;;;;;1.40;1.30;;;;;;;;;;5114599;28;20200;-84
2022/10/25 11:38:44;;;;;;;1.27;1.23;;;;;;;;;;5070655;28;20207;-84
2022/10/25 11:41:26;;;;;;;2.10;1.48;;;;;;;;;;5097892;28;20220;-84
2022/10/25 11:44:12;;;;;;;1.30;1.13;;;;;;;;;;5098927;28;20272;-84
2022/10/25 11:46:46;;;;;;;1.50;1.40;;;;;;;;;;5098280;28;20677;-83
2022/10/25 11:49:41;;;;;;;0.70;0.70;;;;;;;;;;5098473;28;20275;-84
2022/10/25 11:52:43;;;;;;;1.85;1.42;;;;;;;;;;5097701;28;20751;-84
2022/10/25 11:55:23;;;;;;;7.55;5.55;;;;;;;;;;5097550;28;20199;-86
2022/10/25 11:58:01;;;;;;;4.72;3.80;;;;;;;;;;5096701;28;20184;-85
2022/10/25 12:00:42;;;;;;;3.08;2.15;;;;;;;;;;5097477;28;20203;-86
2022/10/25 12:03:26;;;;;;;2.10;1.60;;;;;;;;;;5097527;28;20643;-85
2022/10/25 12:06:09;;;;;;;2.00;1.70;;;;;;;;;;5104741;28;20210;-84
2022/10/25 12:08:46;;;;;;;1.52;1.42;;;;;;;;;;5118357;28;20195;-84
2022/10/25 12:11:18;;;;;;;3.45;2.05;;;;;;;;;;5117182;28;20215;-84
2022/10/25 12:13:49;;;;;;;2.22;2.03;;;;;;;;;;5117761;28;20195;-84
2022/10/25 12:16:21;;;;;;;2.25;2.13;;;;;;;;;;5117348;28;20622;-84
2022/10/25 12:18:51;;;;;;;1.83;1.73;;;;;;;;;;5118051;28;20188;-84
2022/10/25 12:21:22;;;;;;;4.30;1.42;;;;;;;;;;5117134;28;20310;-84
2022/10/25 12:23:52;;;;;;;2.30;1.30;;;;;;;;;;5117754;27;20190;-85
2022/10/25 12:26:25;;;;;;;1.10;1.10;;;;;;;;;;5117232;28;20682;-86
2022/10/25 12:28:53;;;;;;;1.05;0.98;;;;;;;;;;5116900;28;20278;-86
2022/10/25 12:31:26;;;;;;;1.65;1.27;;;;;;;;;;5116797;28;20294;-86
2022/10/25 12:33:57;;;;;;;1.35;1.15;;;;;;;;;;5117099;28;20184;-86
2022/10/25 12:36:34;;;;;;;1.10;1.00;;;;;;;;;;5105515;28;20206;-86
2022/10/25 12:39:04;;;;;;;1.48;1.38;;;;;;;;;;5096378;28;20184;-86
2022/10/25 12:41:36;;;;;;;1.52;1.42;;;;;;;;;;5096421;28;20333;-86
2022/10/25 12:44:22;;;;;;;1.30;1.20;;;;;;;;;;5095967;28;20191;-85
2022/10/25 12:47:31;;;;;;;4.75;1.23;;;;;;;;;;5095500;28;20184;-86
2022/10/25 12:50:35;;;;;;;2.85;1.40;;;;;;;;;;5096495;28;20629;-86
2022/10/25 12:53:47;;;;;;;2.05;1.88;;;;;;;;;;5096200;28;20220;-84
2022/10/25 12:56:28;;;;;;;0.60;0.60;;;;;;;;;;5096005;28;20203;-86
2022/10/25 12:59:06;;;;;;;1.95;1.73;;;;;;;;;;5095804;28;20214;-86
2022/10/25 13:01:58;;;;;;;1.58;1.13;;;;;;;;;;5096316;28;20250;-86
2022/10/25 13:04:51;;;;;;;1.92;1.02;;;;;;;;;;5096371;28;20552;-85
2022/10/25 13:07:18;;;;;;;2.15;0.93;;;;;;;;;;5114837;28;20196;-86
2022/10/25 13:09:46;;;;;;;2.35;1.70;;;;;;;;;;5116094;28;20199;-85
2022/10/25 13:12:21;;;;;;;2.92;1.40;;;;;;;;;;5116675;28;20230;-86
2022/10/25 13:14:51;;;;;;;1.65;1.55;;;;;;;;;;5116248;28;20541;-85
2022/10/25 13:18:01;;;;;;;1.10;0.90;;;;;;;;;;5116321;28;20205;-85
2022/10/25 13:20:50;;;;;;;1.30;0.88;;;;;;;;;;5115764;28;20295;-86
2022/10/25 13:23:58;;;;;;;1.80;0.90;;;;;;;;;;5116582;28;20278;-86
2022/10/25 13:26:33;;;;;;;1.50;1.20;;;;;;;;;;5115749;28;20207;-84
2022/10/25 13:29:25;;;;;;;1.17;0.80;;;;;;;;;;5116354;28;20187;-84
2022/10/25 13:32:06;;;;;;;1.02;1.00;;;;;;;;;;5117287;28;20219;-85
2022/10/25 13:34:38;;;;;;;0.70;0.70;;;;;;;;;;5116889;28;20204;-84
2022/10/25 13:37:36;;;;;;;1.38;1.27;;;;;;;;;;5099625;28;20657;-83
2022/10/25 13:40:06;;;;;;;2.47;1.33;;;;;;;;;;5093592;28;20234;-84
2022/10/25 13:42:35;;;;;;;0.77;0.77;;;;;;;;;;5096023;28;20231;-84
2022/10/25 13:45:09;;;;;;;0.95;0.85;;;;;;;;;;5095476;28;20201;-84
2022/10/25 13:47:39;;;;;;;1.17;0.80;;;;;;;;;;5095815;28;20188;-85
2022/10/25 13:50:16;;;;;;;0.60;0.60;;;;;;;;;;5095874;28;20203;-86
2022/10/25 13:53:00;;;;;;;0.80;0.80;;;;;;;;;;5095510;28;20227;-86
2022/10/25 13:55:34;;;;;;;0.90;0.90;;;;;;;;;;5094845;28;20204;-83
2022/10/25 13:58:02;;;;;;;0.93;0.75;;;;;;;;;;5095924;28;20604;-83
2022/10/25 14:00:38;;;;;;;0.90;0.90;;;;;;;;;;5095996;28;20295;-86
2022/10/25 14:03:34;;;;;;;1.02;0.80;;;;;;;;;;5095833;28;20683;-85
2022/10/25 14:06:29;;;;;;;5.47;0.73;;;;;;;;;;5103540;28;20237;-85
2022/10/25 14:09:18;;;;;;;0.63;0.63;;;;;;;;;;5116038;28;20290;-86
2022/10/25 14:11:50;;;;;;;0.60;0.60;;;;;;;;;;5115210;28;20306;-84
2022/10/25 14:14:26;;;;;;;0.70;0.70;;;;;;;;;;5115135;28;20186;-84
2022/10/25 14:17:09;;;;;;;0.47;0.47;;;;;;;;;;5115216;28;20190;-84
2022/10/25 14:19:39;;;;;;;4.13;0.85;;;;;;;;;;5115013;28;20180;-85
2022/10/25 14:22:16;;;;;;;1.02;0.70;;;;;;;;;;5114788;28;20223;-84
2022/10/25 14:24:46;;;;;;;0.73;0.47;;;;;;;;;;5115000;28;20624;-84
2022/10/25 14:27:29;;;;;;;1.02;0.60;;;;;;;;;;5115133;28;20194;-85
2022/10/25 14:30:22;;;;;;;1.58;0.73;;;;;;;;;;5115032;28;20206;-84
2022/10/25 14:32:52;;;;;;;1.33;0.70;;;;;;;;;;5115111;28;20219;-83
2022/10/25 14:35:20;;;;;;;0.60;0.60;;;;;;;;;;5114710;28;20266;-85
2022/10/25 14:37:49;;;;;;;1.15;0.70;;;;;;;;;;5114668;28;20202;-84
2022/10/25 14:40:27;;;;;;;2.30;1.10;;;;;;;;;;5113535;28;20235;-83
2022/10/25 14:42:55;;;;;;;1.02;0.80;;;;;;;;;;5114090;28;20215;-84
2022/10/25 14:45:26;;;;;;;1.08;0.80;;;;;;;;;;5114783;28;20285;-84
2022/10/25 14:47:53;;;;;;;1.67;1.00;;;;;;;;;;5113541;28;20191;-84
2022/10/25 14:50:23;;;;;;;2.05;1.20;;;;;;;;;;5113825;28;20205;-83
2022/10/25 14:52:53;;;;;;;2.20;1.33;;;;;;;;;;5113476;28;20220;-84
2022/10/25 14:55:27;;;;;;;0.50;0.50;;;;;;;;;;5113970;28;20200;-83
2022/10/25 14:57:55;;;;;;;0.73;0.73;;;;;;;;;;5113678;28;20206;-83
2022/10/25 15:00:23;;;;;;;1.00;0.90;;;;;;;;;;5113487;28;20290;-83
2022/10/25 15:02:55;;;;;;;0.80;0.80;;;;;;;;;;5114774;28;20226;-83
2022/10/25 15:05:25;;;;;;;1.52;1.00;;;;;;;;;;5117821;28;20274;-83
2022/10/25 15:07:57;;;;;;;0.85;0.70;;;;;;;;;;5117704;28;20287;-83
2022/10/25 15:10:37;;;;;;;0.77;0.77;;;;;;;;;;5117641;28;20187;-84
2022/10/25 15:13:06;;;;;;;0.82;0.63;;;;;;;;;;5117244;28;20227;-84
2022/10/25 15:15:39;;;;;;;0.60;0.60;;;;;;;;;;5117247;28;20199;-83
2022/10/25 15:18:32;;;;;;;0.30;0.30;;;;;;;;;;5117554;28;20346;-84